sensor_id;sensor_type;location;lat;lon;timestamp;pressure;altitude;pressure_sealevel;temperature;humidity
53916;BME280;39827;49.652;18.770;2022-08-21T00:00:36;96103.31;;;18.95;100.00
53916;BME280;39827;49.652;18.770;2022-08-21T00:03:04;96106.47;;;18.97;100.00
53916;BME280;39827;49.652;18.770;2022-08-21T00:05:30;96102.88;;;18.93;100.00
53916;BME280;39827;49.652;18.770;2022-08-21T00:07:56;96101.47;;;18.87;100.00
53916;BME280;39827;49.652;18.770;2022-08-21T00:10:21;96104.19;;;18.78;100.00
53916;BME280;39827;49.652;18.770;2022-08-21T00:12:47;96090.28;;;18.85;100.00
53916;BME280;39827;49.652;18.770;2022-08-21T00:15:14;96096.28;;;18.82;100.00
53916;BME280;39827;49.652;18.770;2022-08-21T00:17:41;96089.69;;;18.70;100.00
53916;BME280;39827;49.652;18.770;2022-08-21T00:20:07;96087.78;;;18.71;100.00
53916;BME280;39827;49.652;18.770;2022-08-21T00:22:33;96081.44;;;18.84;100.00
53916;BME280;39827;49.652;18.770;2022-08-21T00:24:59;96087.78;;;18.80;100.00
53916;BME280;39827;49.652;18.770;2022-08-21T00:27:24;96074.38;;;18.80;100.00
53916;BME280;39827;49.652;18.770;2022-08-21T00:29:49;96071.00;;;18.83;100.00
53916;BME280;39827;49.652;18.770;2022-08-21T00:32:19;96071.38;;;18.81;100.00
53916;BME280;39827;49.652;18.770;2022-08-21T00:34:45;96067.75;;;18.77;100.00
53916;BME280;39827;49.652;18.770;2022-08-21T00:37:10;96053.53;;;18.85;100.00
53916;BME280;39827;49.652;18.770;2022-08-21T00:39:35;96045.91;;;18.96;100.00
53916;BME280;39827;49.652;18.770;2022-08-21T00:42:00;96046.06;;;18.91;100.00
53916;BME280;39827;49.652;18.770;2022-08-21T00:44:26;96039.31;;;18.85;100.00
53916;BME280;39827;49.652;18.770;2022-08-21T00:46:51;96032.88;;;18.77;100.00
53916;BME280;39827;49.652;18.770;2022-08-21T00:49:16;96040.75;;;18.73;100.00
53916;BME280;39827;49.652;18.770;2022-08-21T00:51:44;96036.50;;;18.72;100.00
53916;BME280;39827;49.652;18.770;2022-08-21T00:54:12;96033.16;;;18.84;100.00
53916;BME280;39827;49.652;18.770;2022-08-21T00:56:38;96034.59;;;18.82;100.00
53916;BME280;39827;49.652;18.770;2022-08-21T00:59:03;96034.66;;;18.64;100.00
53916;BME280;39827;49.652;18.770;2022-08-21T01:01:29;96032.91;;;18.68;100.00
53916;BME280;39827;49.652;18.770;2022-08-21T01:03:54;96029.47;;;18.59;100.00
53916;BME280;39827;49.652;18.770;2022-08-21T01:06:19;96031.97;;;18.64;100.00
53916;BME280;39827;49.652;18.770;2022-08-21T01:08:45;96033.59;;;18.47;100.00
53916;BME280;39827;49.652;18.770;2022-08-21T01:11:10;96028.72;;;18.49;100.00
53916;BME280;39827;49.652;18.770;2022-08-21T01:13:36;96024.13;;;18.59;100.00
53916;BME280;39827;49.652;18.770;2022-08-21T01:16:03;96029.59;;;18.62;100.00
53916;BME280;39827;49.652;18.770;2022-08-21T01:18:29;96022.53;;;18.58;100.00
53916;BME280;39827;49.652;18.770;2022-08-21T01:21:08;96021.34;;;18.38;100.00
53916;BME280;39827;49.652;18.770;2022-08-21T01:23:35;96018.81;;;18.41;100.00
53916;BME280;39827;49.652;18.770;2022-08-21T01:26:01;96019.69;;;18.54;100.00
53916;BME280;39827;49.652;18.770;2022-08-21T01:28:26;96017.63;;;18.60;100.00
53916;BME280;39827;49.652;18.770;2022-08-21T01:30:55;96013.09;;;18.52;100.00
53916;BME280;39827;49.652;18.770;2022-08-21T01:33:21;96012.31;;;18.51;100.00
53916;BME280;39827;49.652;18.770;2022-08-21T01:35:47;96001.38;;;18.65;100.00
53916;BME280;39827;49.652;18.770;2022-08-21T01:38:12;95995.41;;;18.59;100.00
53916;BME280;39827;49.652;18.770;2022-08-21T01:40:37;95993.22;;;18.53;100.00
53916;BME280;39827;49.652;18.770;2022-08-21T01:43:03;95997.13;;;18.64;100.00
53916;BME280;39827;49.652;18.770;2022-08-21T01:45:28;95986.56;;;18.59;100.00
53916;BME280;39827;49.652;18.770;2022-08-21T01:47:53;95987.72;;;18.49;100.00
53916;BME280;39827;49.652;18.770;2022-08-21T01:50:19;95976.25;;;18.40;100.00
53916;BME280;39827;49.652;18.770;2022-08-21T01:52:45;95973.97;;;18.59;100.00
53916;BME280;39827;49.652;18.770;2022-08-21T01:55:10;95976.16;;;18.66;100.00
53916;BME280;39827;49.652;18.770;2022-08-21T01:57:36;95972.97;;;18.64;100.00
53916;BME280;39827;49.652;18.770;2022-08-21T02:00:03;95976.22;;;18.48;100.00
53916;BME280;39827;49.652;18.770;2022-08-21T02:02:28;95969.94;;;18.44;100.00
53916;BME280;39827;49.652;18.770;2022-08-21T02:04:54;95974.59;;;18.56;100.00
53916;BME280;39827;49.652;18.770;2022-08-21T02:07:19;95972.34;;;18.67;100.00
53916;BME280;39827;49.652;18.770;2022-08-21T02:09:44;95971.41;;;18.63;100.00
53916;BME280;39827;49.652;18.770;2022-08-21T02:12:10;95974.97;;;18.76;100.00
53916;BME280;39827;49.652;18.770;2022-08-21T02:14:35;95982.19;;;18.84;100.00
53916;BME280;39827;49.652;18.770;2022-08-21T02:17:01;95983.50;;;18.78;100.00
53916;BME280;39827;49.652;18.770;2022-08-21T02:19:26;95989.22;;;18.68;100.00
53916;BME280;39827;49.652;18.770;2022-08-21T02:21:51;95994.44;;;18.64;100.00
53916;BME280;39827;49.652;18.770;2022-08-21T02:24:16;95997.81;;;18.52;100.00
53916;BME280;39827;49.652;18.770;2022-08-21T02:26:42;96013.00;;;18.30;100.00
53916;BME280;39827;49.652;18.770;2022-08-21T02:29:07;96007.91;;;18.46;100.00
53916;BME280;39827;49.652;18.770;2022-08-21T02:31:33;95995.13;;;18.43;100.00
53916;BME280;39827;49.652;18.770;2022-08-21T02:33:58;95985.72;;;18.37;100.00
53916;BME280;39827;49.652;18.770;2022-08-21T02:36:24;96003.06;;;18.31;100.00
53916;BME280;39827;49.652;18.770;2022-08-21T02:38:49;96013.81;;;18.13;100.00
53916;BME280;39827;49.652;18.770;2022-08-21T02:41:16;96003.56;;;18.15;100.00
53916;BME280;39827;49.652;18.770;2022-08-21T02:43:42;95992.38;;;18.04;100.00
53916;BME280;39827;49.652;18.770;2022-08-21T02:46:08;95983.41;;;18.18;100.00
53916;BME280;39827;49.652;18.770;2022-08-21T02:48:34;95987.38;;;18.12;100.00
